Tropical Cyclones
[Index]
Main Index Home Page Stock Weather Photos Extreme Storms Discussion Storm News and Storm Chasing Reports Tropical Cyclones / Hurricanes / Typhoons Weather Data and Links Wild Fires / Bushfires Weather Observation Techniques Weather Picture Catalogue Tornado Pictures and Reports Stock Video Footage and DVDs for sale
Season 2005-2006 Tropical Cyclone EMMA Track Map
Season 2005-2006 Summaries: [BoM-AU] [JTWC-AU] [JTWC-SIO] [JTWC-SPAC] [JTWC-SH]
<<- Previous TC | BoM 2005-2006 Season | Next TC ->>

click for intensity scale information  Lat/long Grid: Show Hide

 Date Labels: Show Hide

Bureau of Meteorology Tropical Cyclone Data

Name: EMMA
Number: 896 / 200506_11

25 Feb 2006 18:00 UTC to 01 Mar 2006 18:00 UTC

    date/time    lat    long    hPa   cat  kts
2006-02-25 18   12.0   114.4   1000         20          
2006-02-26 00   12.2   114.4    998         25          
2006-02-26 06   12.4   114.2    998         25          
2006-02-26 12   13.3   113.9    996         30          
2006-02-26 18   14.7   114.0    996         30          
2006-02-27 00   16.6   114.4    996         30          
2006-02-27 06   17.1   114.9    996         35          
2006-02-27 12   18.3   115.2    992    1    35          
2006-02-27 18   19.4   115.5    990    1    40          
2006-02-27 21   20.0   115.6    990    1    40          
2006-02-28 00   20.6   115.7    990    1    40          
2006-02-28 03   21.3   115.9    990    1    35          
2006-02-28 06   22.1   116.2    990    1    30          
2006-02-28 12   24.1   117.2    988    1    30          
2006-02-28 18   26.5   118.2    988    1    30          
2006-03-01 00   28.9   119.0    990    1    30          
2006-03-01 06   31.2   120.2    990    1    30          
2006-03-01 12   33.4   121.4    992    1    30          
2006-03-01 18   35.6   122.1    992    1    30          
Winds are 10-min average.

Tropical cyclone tracks developed by Michael Bath using data from the Bureau of Meteorology and Google Maps.


[Australian Severe Weather index] [Copyright Notice] [Email Contacts] [Search This Site] [Privacy Policy]
Document: tropical_cyclone_emma.htm Updated: 29 June 2017